createdAt,value
2023-10-15T00:04:24.516Z,77.40
2023-10-15T00:09:28.192Z,77.43
2023-10-15T00:14:32.610Z,76.67
2023-10-15T00:19:36.623Z,75.64
2023-10-15T00:24:41.912Z,77.04
2023-10-15T00:29:45.807Z,77.36
2023-10-15T00:34:51.168Z,76.96
2023-10-15T00:39:55.812Z,75.75
2023-10-15T00:44:59.248Z,76.33
2023-10-15T00:50:09.307Z,76.60
2023-10-15T00:55:18.231Z,76.48
2023-10-15T01:00:40.226Z,76.40
2023-10-15T01:05:54.944Z,76.91
2023-10-15T01:11:21.855Z,76.88
2023-10-15T01:16:29.543Z,76.42
2023-10-15T01:21:34.082Z,76.62
2023-10-15T01:26:40.730Z,77.59
2023-10-15T01:31:52.580Z,78.21
2023-10-15T01:36:58.778Z,77.63
2023-10-15T01:42:06.433Z,78.00
2023-10-15T01:47:10.073Z,78.02
2023-10-15T01:52:22.607Z,78.73
2023-10-15T01:57:26.280Z,77.55
2023-10-15T02:02:31.077Z,77.80
2023-10-15T02:07:36.672Z,77.89
2023-10-15T02:12:39.957Z,78.31
2023-10-15T02:17:44.978Z,78.61
2023-10-15T02:22:48.432Z,77.95
2023-10-15T02:27:52.069Z,78.24
2023-10-15T02:32:55.384Z,78.28
2023-10-15T02:38:01.052Z,78.25
2023-10-15T02:43:07.975Z,78.52
2023-10-15T02:48:21.373Z,78.32
2023-10-15T02:53:25.138Z,78.54
2023-10-15T02:58:30.043Z,78.98
2023-10-15T03:03:36.122Z,78.92
2023-10-15T03:08:49.228Z,78.77
2023-10-15T03:13:56.868Z,78.47
2023-10-15T03:19:19.471Z,78.68
2023-10-15T03:24:24.189Z,79.17
2023-10-15T03:29:28.267Z,78.63
2023-10-15T03:34:37.524Z,79.37
2023-10-15T03:39:41.078Z,78.83
2023-10-15T03:44:48.631Z,79.33
2023-10-15T03:49:53.151Z,78.86
2023-10-15T03:54:57.493Z,79.45
2023-10-15T04:00:02.003Z,79.23
2023-10-15T04:05:10.178Z,79.53
2023-10-15T04:10:14.728Z,79.12
2023-10-15T04:15:18.980Z,79.19
2023-10-15T04:20:43.081Z,79.72
2023-10-15T04:25:49.243Z,80.08
2023-10-15T04:30:53.424Z,79.92
2023-10-15T04:35:58.026Z,79.86
2023-10-15T04:41:04.962Z,80.48
2023-10-15T04:46:09.394Z,80.11
2023-10-15T04:51:14.605Z,79.70
2023-10-15T04:56:18.552Z,79.63
2023-10-15T05:01:22.012Z,79.47
2023-10-15T05:06:25.939Z,79.41
2023-10-15T05:11:29.789Z,79.32
2023-10-15T05:16:33.188Z,79.07
2023-10-15T05:21:36.498Z,78.90
2023-10-15T05:26:39.867Z,78.64
2023-10-15T05:31:46.392Z,78.47
2023-10-15T05:36:50.131Z,78.22
2023-10-15T05:41:53.795Z,77.73
2023-10-15T05:46:57.329Z,77.26
2023-10-15T05:52:01.235Z,76.88
2023-10-15T05:57:07.394Z,76.81
2023-10-15T06:02:10.790Z,76.61
2023-10-15T06:07:17.505Z,76.16
2023-10-15T06:12:20.916Z,75.74
2023-10-15T06:17:24.399Z,74.90
2023-10-15T06:22:27.952Z,74.35
2023-10-15T06:27:31.311Z,72.42
2023-10-15T06:32:35.883Z,71.56
2023-10-15T06:37:40.605Z,68.31
2023-10-15T06:42:45.282Z,59.83
2023-10-15T06:47:50.781Z,53.67
2023-10-15T06:52:54.791Z,54.29
2023-10-15T06:57:59.460Z,51.40
2023-10-15T07:03:02.943Z,53.20
2023-10-15T07:08:07.656Z,55.07
2023-10-15T07:13:11.769Z,59.90
2023-10-15T07:18:15.238Z,62.36
2023-10-15T07:23:18.654Z,62.37
2023-10-15T07:28:23.837Z,63.25
2023-10-15T07:33:27.231Z,61.97
2023-10-15T07:38:30.702Z,62.33
2023-10-15T07:43:34.071Z,62.01
2023-10-15T07:48:37.889Z,60.18
2023-10-15T07:53:41.267Z,60.12
2023-10-15T07:58:44.766Z,59.51
2023-10-15T08:03:48.351Z,59.59
2023-10-15T08:08:52.191Z,60.89
2023-10-15T08:13:55.655Z,61.24
2023-10-15T08:19:00.561Z,58.92
2023-10-15T08:24:05.723Z,59.85
2023-10-15T08:29:11.771Z,60.86
2023-10-15T08:34:16.530Z,59.48
2023-10-15T08:39:20.302Z,58.19
2023-10-15T08:44:26.416Z,55.64
2023-10-15T08:49:39.202Z,55.49
2023-10-15T08:54:47.149Z,52.02
2023-10-15T08:59:55.117Z,49.50
2023-10-15T09:04:58.605Z,46.01
2023-10-15T09:10:02.461Z,48.13
2023-10-15T09:15:17.569Z,50.72
2023-10-15T09:20:28.072Z,52.88
2023-10-15T09:25:31.745Z,54.56
2023-10-15T09:30:35.108Z,55.65
2023-10-15T09:35:38.480Z,56.27
2023-10-15T09:40:45.278Z,56.88
2023-10-15T09:45:48.745Z,57.38
2023-10-15T09:50:55.130Z,57.74
2023-10-15T09:55:59.819Z,57.38
2023-10-15T10:01:10.954Z,57.22
2023-10-15T10:06:50.141Z,56.95
2023-10-15T10:12:08.556Z,57.35
2023-10-15T10:17:14.009Z,57.55
2023-10-15T10:22:36.086Z,57.74
2023-10-15T10:27:43.400Z,57.63
2023-10-15T10:32:46.834Z,58.26
2023-10-15T10:38:10.626Z,58.14
2023-10-15T10:43:28.676Z,57.96
2023-10-15T10:48:40.780Z,58.04
2023-10-15T10:53:59.335Z,58.32
2023-10-15T10:59:03.008Z,58.48
2023-10-15T11:04:11.887Z,57.56
2023-10-15T11:09:21.191Z,57.55
2023-10-15T11:14:31.360Z,57.97
2023-10-15T11:19:34.909Z,58.28
2023-10-15T11:24:39.235Z,58.04
2023-10-15T11:29:42.786Z,58.16
2023-10-15T11:34:46.535Z,58.43
2023-10-15T11:39:52.692Z,58.12
2023-10-15T11:44:58.214Z,57.78
2023-10-15T11:50:01.726Z,58.19
2023-10-15T11:55:07.633Z,58.27
2023-10-15T12:00:11.858Z,57.30
2023-10-15T12:05:15.356Z,56.43
2023-10-15T12:10:18.664Z,56.29
2023-10-15T12:15:22.072Z,56.45
2023-10-15T12:20:26.576Z,56.67
2023-10-15T12:25:30.034Z,56.18
2023-10-15T12:30:34.123Z,56.26
2023-10-15T12:35:38.089Z,56.69
2023-10-15T12:40:41.737Z,56.94
2023-10-15T12:45:50.575Z,56.80
2023-10-15T12:50:54.212Z,56.85
2023-10-15T12:55:58.367Z,57.02
2023-10-15T13:01:02.226Z,57.32
2023-10-15T13:06:05.726Z,56.48
2023-10-15T13:11:09.587Z,56.52
2023-10-15T13:16:13.117Z,56.84
2023-10-15T13:21:16.785Z,56.90
2023-10-15T13:26:20.274Z,57.10
2023-10-15T13:31:24.839Z,57.01
2023-10-15T13:36:29.280Z,57.04
2023-10-15T13:41:32.659Z,56.66
2023-10-15T13:46:37.288Z,56.91
2023-10-15T13:51:41.654Z,57.04
2023-10-15T13:56:45.283Z,57.88
2023-10-15T14:01:48.919Z,58.37
2023-10-15T14:06:53.539Z,57.48
2023-10-15T14:11:57.165Z,57.33
2023-10-15T14:17:00.680Z,57.54
2023-10-15T14:22:05.857Z,57.79
2023-10-15T14:27:09.211Z,57.44
2023-10-15T14:32:13.631Z,57.69
2023-10-15T14:37:17.769Z,57.75
2023-10-15T14:42:22.013Z,58.28
2023-10-15T14:47:25.537Z,58.68
2023-10-15T14:52:29.150Z,59.03
2023-10-15T14:57:33.539Z,59.36
2023-10-15T15:02:37.273Z,59.72
2023-10-15T15:07:44.221Z,60.04
2023-10-15T15:12:47.735Z,60.09
2023-10-15T15:17:51.389Z,60.40
2023-10-15T15:22:56.372Z,60.51
2023-10-15T15:27:59.732Z,60.89
2023-10-15T15:33:03.258Z,61.61
2023-10-15T15:38:07.834Z,61.86
2023-10-15T15:43:11.311Z,63.29
2023-10-15T15:48:14.669Z,64.15
2023-10-15T15:53:18.181Z,64.70
2023-10-15T15:58:21.573Z,65.71
2023-10-15T16:03:25.361Z,65.11
2023-10-15T16:08:31.489Z,65.75
2023-10-15T16:13:34.832Z,66.93
2023-10-15T16:18:38.235Z,66.01
2023-10-15T16:23:41.563Z,66.05
2023-10-15T16:28:45.445Z,66.61
2023-10-15T16:33:48.778Z,67.21
2023-10-15T16:38:52.289Z,66.53
2023-10-15T16:43:56.771Z,67.18
2023-10-15T16:49:00.500Z,67.20
2023-10-15T16:54:03.957Z,67.60
2023-10-15T16:59:07.626Z,68.74
2023-10-15T17:04:11.388Z,68.26
2023-10-15T17:09:14.827Z,68.86
2023-10-15T17:14:18.161Z,68.22
2023-10-15T17:19:21.536Z,68.34
2023-10-15T17:24:24.867Z,68.30
2023-10-15T17:29:28.446Z,68.10
2023-10-15T17:34:32.840Z,68.93
2023-10-15T17:39:36.344Z,68.79
2023-10-15T17:44:39.711Z,68.68
2023-10-15T17:49:43.424Z,68.60
2023-10-15T17:54:46.984Z,68.08
2023-10-15T17:59:50.442Z,68.00
2023-10-15T18:04:55.698Z,67.98
2023-10-15T18:09:59.156Z,68.12
2023-10-15T18:15:02.696Z,68.01
2023-10-15T18:20:07.335Z,68.01
2023-10-15T18:25:10.674Z,67.87
2023-10-15T18:30:14.279Z,67.74
2023-10-15T18:35:18.158Z,67.53
2023-10-15T18:40:21.552Z,67.27
2023-10-15T18:45:25.060Z,66.96
2023-10-15T18:50:28.756Z,66.84
2023-10-15T18:55:32.549Z,66.84
2023-10-15T19:00:36.203Z,66.87
2023-10-15T19:05:40.254Z,66.80
2023-10-15T19:10:43.622Z,66.65
2023-10-15T19:15:58.761Z,66.43
2023-10-15T19:21:02.234Z,66.33
2023-10-15T19:26:07.517Z,66.48
2023-10-15T19:31:10.920Z,66.42
2023-10-15T19:36:15.640Z,66.50
2023-10-15T19:41:19.053Z,66.54
2023-10-15T19:46:23.156Z,66.65
2023-10-15T19:51:26.757Z,66.83
2023-10-15T19:56:30.286Z,67.10
2023-10-15T20:01:35.273Z,67.34
2023-10-15T20:06:38.806Z,67.80
2023-10-15T20:11:42.283Z,68.56
2023-10-15T20:16:45.664Z,68.33
2023-10-15T20:21:52.167Z,69.18
2023-10-15T20:26:55.565Z,69.67
2023-10-15T20:31:58.908Z,69.54
2023-10-15T20:37:02.277Z,69.92
2023-10-15T20:42:05.762Z,70.74
2023-10-15T20:47:09.715Z,70.73
2023-10-15T20:52:13.087Z,70.67
2023-10-15T20:57:16.477Z,70.70
2023-10-15T21:02:19.785Z,71.31
2023-10-15T21:07:24.170Z,71.42
2023-10-15T21:12:27.612Z,71.00
2023-10-15T21:17:31.015Z,71.01
2023-10-15T21:22:35.053Z,71.18
2023-10-15T21:27:39.438Z,71.31
2023-10-15T21:32:42.906Z,71.57
2023-10-15T21:37:46.562Z,71.77
2023-10-15T21:42:50.039Z,72.35
2023-10-15T21:47:53.532Z,72.94
2023-10-15T21:52:58.180Z,72.85
2023-10-15T21:58:02.028Z,73.05
2023-10-15T22:03:05.913Z,73.44
2023-10-15T22:08:11.237Z,73.72
2023-10-15T22:13:19.811Z,73.53
2023-10-15T22:18:28.663Z,73.89
2023-10-15T22:23:32.037Z,75.54
2023-10-15T22:28:36.058Z,74.13
2023-10-15T22:33:39.350Z,74.70
2023-10-15T22:38:43.022Z,76.00
2023-10-15T22:43:46.275Z,76.24
2023-10-15T22:48:50.858Z,76.37
2023-10-15T22:53:54.253Z,75.33
2023-10-15T22:58:57.645Z,76.69
2023-10-15T23:04:01.181Z,76.90
2023-10-15T23:09:05.007Z,77.39
2023-10-15T23:14:11.890Z,78.53
2023-10-15T23:19:17.171Z,78.03
2023-10-15T23:24:20.887Z,77.00
2023-10-15T23:29:26.502Z,76.74
2023-10-15T23:34:29.904Z,76.72
2023-10-15T23:39:33.343Z,76.62
2023-10-15T23:44:37.972Z,77.52
2023-10-15T23:49:41.355Z,78.07
2023-10-15T23:54:52.536Z,78.39
2023-10-15T23:59:56.720Z,78.04
